Orbital elements of FENGYUN 1C DEB
| Launched | 9 May 1999 |
| Flight ended | – |
| Launch site | Taiyuan Space Center, PRC |
| Owner | People's Republic of China |
| NORAD ID | 31151 |
| Date fetched |
Epoch osculation |
Inc. [°] |
Ecc. | RA asc node [hr] |
Arg Peri. [°] |
Mean anom [°] |
Mean motion [rev/day] |
Abs. mag |
| Date fetched |
Epoch osculation |
Inc. [°] |
Ecc. | RA asc node [hr] |
Arg Peri. [°] |
Mean anom [°] |
Mean motion [rev/day] |
Abs. mag |
| 2026 May 08 17:57 | 2026 May 02 23:14:32 | 99.1281 | 0.00534 | 9.3006 | 340.7171 | 19.1985 | 14.27389 | – |
| 2026 May 07 17:58 | 2026 May 02 23:14:32 | 99.1281 | 0.00534 | 9.3006 | 340.7171 | 19.1985 | 14.27389 | – |
| 2026 May 06 17:57 | 2026 May 02 23:14:32 | 99.1281 | 0.00534 | 9.3006 | 340.7171 | 19.1985 | 14.27389 | – |
| 2026 May 05 17:57 | 2026 May 02 23:14:32 | 99.1281 | 0.00534 | 9.3006 | 340.7171 | 19.1985 | 14.27389 | – |
| 2026 May 04 17:57 | 2026 Apr 30 07:18:48 | 99.1291 | 0.00537 | 9.1152 | 348.5120 | 19.1985 | 14.27389 | – |
| 2026 May 03 17:57 | 2026 Apr 30 07:18:48 | 99.1291 | 0.00537 | 9.1152 | 348.5120 | 19.1985 | 14.27389 | – |
| 2026 May 02 17:57 | 2026 Apr 30 07:18:48 | 99.1291 | 0.00537 | 9.1152 | 348.5120 | 19.1985 | 14.27389 | – |
| 2026 May 01 17:56 | 2026 Apr 30 07:18:48 | 99.1291 | 0.00537 | 9.1152 | 348.5120 | 19.1985 | 14.27389 | – |
| 2026 Apr 30 17:56 | 2026 Apr 30 07:18:48 | 99.1291 | 0.00537 | 9.1152 | 348.5120 | 19.1985 | 14.27389 | – |
| 2026 Apr 29 17:57 | 2026 Apr 24 11:40:30 | 99.1315 | 0.00544 | 8.7103 | 5.5451 | 19.1985 | 14.27389 | – |
| 2026 Apr 28 17:56 | 2026 Apr 24 11:40:30 | 99.1315 | 0.00544 | 8.7103 | 5.5451 | 19.1985 | 14.27389 | – |
| 2026 Apr 27 17:58 | 2026 Apr 24 11:40:30 | 99.1315 | 0.00544 | 8.7103 | 5.5451 | 19.1985 | 14.27389 | – |
| 2026 Apr 26 17:58 | 2026 Apr 24 11:40:30 | 99.1315 | 0.00544 | 8.7103 | 5.5451 | 19.1985 | 14.27389 | – |
| 2026 Apr 25 17:58 | 2026 Apr 24 11:40:30 | 99.1315 | 0.00544 | 8.7103 | 5.5451 | 19.1985 | 14.27389 | – |
| 2026 Apr 24 17:59 | 2026 Apr 24 11:40:30 | 99.1315 | 0.00544 | 8.7103 | 5.5451 | 19.1985 | 14.27389 | – |
| 2026 Apr 23 17:57 | 2026 Apr 16 11:52:31 | 99.1307 | 0.00554 | 8.1539 | 28.4711 | 19.1985 | 14.27389 | – |
| 2026 Apr 22 17:57 | 2026 Apr 16 11:52:31 | 99.1307 | 0.00554 | 8.1539 | 28.4711 | 19.1985 | 14.27389 | – |
| 2026 Apr 21 17:57 | 2026 Apr 16 11:52:31 | 99.1307 | 0.00554 | 8.1539 | 28.4711 | 19.1985 | 14.27389 | – |
| 2026 Apr 20 17:57 | 2026 Apr 16 11:52:31 | 99.1307 | 0.00554 | 8.1539 | 28.4711 | 19.1985 | 14.27389 | – |
| 2026 Apr 19 17:58 | 2026 Apr 16 11:52:31 | 99.1307 | 0.00554 | 8.1539 | 28.4711 | 19.1985 | 14.27389 | – |
| 2026 Apr 18 17:56 | 2026 Apr 12 23:45:01 | 99.1319 | 0.00558 | 7.9099 | 38.4278 | 19.1985 | 14.27389 | – |
| 2026 Apr 16 17:57 | 2026 Apr 12 23:45:01 | 99.1319 | 0.00558 | 7.9099 | 38.4278 | 19.1985 | 14.27389 | – |
| 2026 Apr 14 17:57 | 2026 Apr 12 23:45:01 | 99.1319 | 0.00558 | 7.9099 | 38.4278 | 19.1985 | 14.27389 | – |
| 2026 Apr 13 17:57 | 2026 Apr 12 23:45:01 | 99.1319 | 0.00558 | 7.9099 | 38.4278 | 19.1985 | 14.27389 | – |
| 2026 Apr 12 17:57 | 2026 Apr 08 07:01:16 | 99.1318 | 0.00562 | 7.5830 | 51.6352 | 19.1985 | 14.27389 | – |
| 2026 Apr 11 17:57 | 2026 Apr 08 07:01:16 | 99.1318 | 0.00562 | 7.5830 | 51.6352 | 19.1985 | 14.27389 | – |